Flight Track Log - Related Links

Times and Time Zones

All times are in EDT time to prevent confusion due to time zone crossing. See the ASQ45T flight status page for this flight to view local times or setup timezone preferences in your user account.


Time Position Orientation Groundspeed Altitude Reporting Facility
EDT Latitude Longitude Course Direction KTS MPH feet Rate Location/Type
Mon 01:58:01 PM 36.1200 -95.8694 96° East 229 264 3,800  Level Kansas City Center
Mon 01:59:15 PM 36.1125 -95.7811 96° East 299 344 6,100 2,222 Climbing Kansas City Center
Mon 02:00:16 PM 36.1636 -95.6917 55° Northeast 303 349 8,800 2,250 Climbing Kansas City Center
Mon 02:01:07 PM 36.1978 -95.6261 57° Northeast 296 341 10,300 1,381 Climbing Kansas City Center
Mon 02:02:09 PM 36.2519 -95.5286 55° Northeast 339 390 11,400 1,440 Climbing Kansas City Center
Mon 02:03:12 PM 36.3189 -95.4053 56° Northeast 364 419 13,300 1,584 Climbing Kansas City Center
Mon 02:04:14 PM 36.3775 -95.2981 56° Northeast 383 441 14,700 1,452 Climbing Kansas City Center
Mon 02:05:16 PM 36.4347 -95.1936 56° Northeast 389 448 16,300 1,452 Climbing Kansas City Center
Mon 02:06:18 PM 36.4983 -95.0769 56° Northeast 390 449 17,700 1,500 Climbing Kansas City Center
Mon 02:07:20 PM 36.5592 -94.9622 57° Northeast 395 455 19,400 1,597 Climbing Kansas City Center
Mon 02:08:22 PM 36.6314 -94.8294 56° Northeast 389 448 21,000 1,548 Climbing Kansas City Center
Mon 02:09:24 PM 36.6917 -94.7161 56° Northeast 390 449 22,600 1,452 Climbing Kansas City Center
Mon 02:10:26 PM 36.7528 -94.6036 56° Northeast 391 450 24,000 1,306 Climbing Kansas City Center
Mon 02:11:28 PM 36.8119 -94.4908 57° Northeast 390 449 25,300 1,258 Climbing Kansas City Center
Mon 02:12:30 PM 36.8728 -94.3769 56° Northeast 391 450 26,600 1,452 Climbing Kansas City Center
Mon 02:13:32 PM 36.9356 -94.2672 54° Northeast 390 449 28,300 1,645 Climbing Kansas City Center
Mon 02:14:34 PM 37.0311 -94.1639 41° Northeast 378 435 30,000 1,306 Climbing Kansas City Center
Mon 02:15:36 PM 37.1111 -94.0772 41° Northeast 380 437 31,000 484 Climbing Kansas City Center
Mon 02:16:38 PM 37.1969 -93.9803 42° Northeast 401 461 31,000  Level Kansas City Center
Mon 02:17:40 PM 37.2894 -93.8794 41° Northeast 433 498 31,000 532 Level Kansas City Center
Mon 02:18:42 PM 37.3833 -93.7761 41° Northeast 445 512 32,100 1,113 Climbing Kansas City Center
Mon 02:19:44 PM 37.4747 -93.6733 42° Northeast 442 509 33,300 935 Climbing Kansas City Center
Mon 02:21:00 PM 37.5756 -93.5566 42° Northeast  Level FlightAware Approximate
Mon 02:21:48 PM 37.6575 -93.4714 42° Northeast 436 502 35,000  Level Kansas City Center
Mon 02:22:50 PM 37.7717 -93.3433 42° Northeast 451 519 35,000  Level Kansas City Center
Mon 02:23:52 PM 37.8708 -93.2303 42° Northeast 469 540 35,000  Level Kansas City Center
Mon 02:24:55 PM 37.9714 -93.1172 42° Northeast 476 548 35,000  Level Kansas City Center
Mon 02:25:57 PM 38.0717 -93.0042 42° Northeast 478 550 35,000  Level Kansas City Center
Mon 02:26:59 PM 38.1717 -92.8908 42° Northeast 478 550 35,000  Level Kansas City Center
Mon 02:28:01 PM 38.2700 -92.7789 42° Northeast 474 545 35,000  Level Kansas City Center
Mon 02:29:03 PM 38.3703 -92.6622 42° Northeast 478 550 35,000  Level Kansas City Center
Mon 02:30:05 PM 38.4703 -92.5481 42° Northeast 478 550 35,000  Level Kansas City Center
Mon 02:31:07 PM 38.5894 -92.4103 42° Northeast 478 550 35,000  Level Kansas City Center
Mon 02:32:09 PM 38.6875 -92.2933 43° Northeast 479 551 35,000  Level Kansas City Center
Mon 02:33:11 PM 38.7864 -92.1772 42° Northeast 479 551 35,000  Level Kansas City Center
Mon 02:34:13 PM 38.8856 -92.0614 42° Northeast 478 550 35,000  Level Kansas City Center
Mon 02:35:15 PM 38.9847 -91.9450 42° Northeast 481 554 35,000  Level Kansas City Center
Mon 02:36:17 PM 39.0831 -91.8286 43° Northeast 480 552 35,000  Level Kansas City Center
Mon 02:37:19 PM 39.1822 -91.7122 42° Northeast 480 552 35,000  Level Kansas City Center
Mon 02:38:21 PM 39.2894 -91.5858 42° Northeast 484 557 35,000  Level Kansas City Center
Mon 02:39:23 PM 39.3864 -91.4697 43° Northeast 480 552 35,000 -48 Level Kansas City Center
Mon 02:40:25 PM 39.4789 -91.3586 43° Northeast 466 536 34,900 -871 Descending Kansas City Center
Mon 02:41:27 PM 39.5942 -91.2203 43° Northeast 466 536 33,200 -1,355 Descending Kansas City Center
Mon 02:42:29 PM 39.6889 -91.1044 43° Northeast 466 536 32,100 -581 Descending Kansas City Center
Mon 02:43:31 PM 39.7792 -91.0083 39° Northeast 467 537 32,000 -528 Descending Kansas City Center
Mon 02:44:34 PM 39.8922 -90.8947 38° Northeast 467 537 31,000 -480 Descending Kansas City Center
Mon 02:45:36 PM 39.9969 -90.7903 37° Northeast 470 541 31,000  Level Kansas City Center
Mon 02:46:38 PM 40.1008 -90.6833 38° Northeast 474 545 31,000  Level Kansas City Center
Mon 02:47:40 PM 40.2050 -90.5786 38° Northeast 474 545 31,000  Level Kansas City Center
Mon 02:48:42 PM 40.3308 -90.4508 38° Northeast 474 545 31,000 -54 Level Kansas City Center
Mon 02:49:31 PM 40.4144 -90.3658 38° Northeast 475 547 30,900 -541 Descending Chicago Center
Mon 02:50:33 PM 40.5161 -90.2606 38° Northeast 467 537 30,000 -968 Descending Chicago Center
Mon 02:51:35 PM 40.6311 -90.1431 38° Northeast 472 543 28,900 -1,008 Descending Chicago Center
Mon 02:52:38 PM 40.7383 -90.0333 38° Northeast 487 560 27,900 -912 Descending Chicago Center
Mon 02:53:40 PM 40.8475 -89.9208 38° Northeast 497 572 27,000 -919 Descending Chicago Center
Mon 02:54:42 PM 40.9442 -89.8161 39° Northeast 453 521 26,000 -1,065 Descending Chicago Center
Mon 02:55:44 PM 41.0378 -89.7169 39° Northeast 440 506 24,800 -1,065 Descending Chicago Center
Mon 02:56:46 PM 41.1331 -89.6172 38° Northeast 438 504 23,800 -1,597 Descending Chicago Center
Mon 02:57:48 PM 41.2128 -89.4619 56° Northeast 429 494 21,500 -2,226 Descending Chicago Center
Mon 02:58:50 PM 41.2675 -89.3253 62° Northeast 424 488 19,200 -2,177 Descending Chicago Center
Mon 02:59:52 PM 41.3178 -89.1964 63° Northeast 400 460 17,000 -2,032 Descending Chicago Center
Mon 03:00:54 PM 41.3653 -89.0800 61° Northeast 368 423 15,000 -1,968 Descending Chicago Center
Mon 03:01:57 PM 41.4092 -88.9667 63° Northeast 349 402 12,900 -1,824 Descending Chicago Center
Mon 03:02:59 PM 41.4603 -88.8378 62° Northeast 326 375 11,200 -871 Descending Chicago Center
Mon 03:04:01 PM 41.5003 -88.7381 62° Northeast 308 354 11,100 -97 Descending Chicago Center
Mon 03:05:03 PM 41.5397 -88.6372 62° Northeast 307 353 11,000  Descending Chicago Center
Mon 03:06:05 PM 41.5797 -88.5367 62° Northeast 305 351 11,100 -48 Climbing Chicago Center
Mon 03:07:07 PM 41.6239 -88.4400 59° Northeast 303 349 10,900 -968 Descending Chicago Center
Mon 03:08:09 PM 41.6764 -88.3561 50° Northeast 293 337 9,100 -1,839 Descending Chicago Center
Mon 03:09:11 PM 41.7683 -88.3458 North 272 313 7,100 -1,016 Descending Chicago Center
Mon 03:10:13 PM 41.8383 -88.3406 North 253 291 7,000 -48 Descending Chicago Center
Mon 03:11:15 PM 41.8989 -88.3336 North 221 254 7,000 -480 Level Chicago Center
Mon 03:12:18 PM 41.9531 -88.3269 North 200 230 6,000 -912 Descending Chicago Center
Mon 03:13:20 PM 41.9828 -88.2833 47° Northeast 215 247 5,100 -629 Descending Chicago Center
Mon 03:14:22 PM 41.9661 -88.2008 105° East 195 224 4,700 -726 Descending Chicago Center
Mon 03:15:24 PM 41.9681 -88.1258 88° East 198 228 3,600 -1,087 Descending Chicago Center
Mon 03:16:29 PM 41.9667 -88.0500 91° East 192 221 2,400 -1,008 Descending Chicago TRACON
Mon 03:17:35 PM 41.9667 -87.9667 90° East 168 193 1,400 -909 Descending Chicago TRACON
Mon 03:20:00 PM 41.9667 -87.9000 82° East  Level FlightAware Approximate

Login

Don't have an account? Register now (free) for customized features, flight alerts, and more!